Time;durP1;ratioP1;P1;durP2;ratioP2;P2;SDS_P1;SDS_P2;PMS_P1;PMS_P2;Temp;Humidity;BMP_temperature;BMP_pressure;BME280_temperature;BME280_humidity;BME280_pressure;Samples;Min_cycle;Max_cycle;Signal;HPM_P1;HPM_P2
2022/10/09 04:01:14;;;;;;;11.82;6.63;;;7.50;99.90;;;;;;6285362;22;20023;-76
2022/10/09 04:03:39;;;;;;;18.30;7.53;;;7.50;99.90;;;;;;6309684;22;20052;-76
2022/10/09 04:06:05;;;;;;;15.70;6.43;;;7.50;99.90;;;;;;6311030;22;20501;-77
2022/10/09 04:08:31;;;;;;;12.00;5.93;;;7.50;99.90;;;;;;6339453;22;20014;-79
2022/10/09 04:10:58;;;;;;;13.63;6.00;;;7.50;99.90;;;;;;6339835;22;20100;-79
2022/10/09 04:13:23;;;;;;;14.85;6.03;;;7.40;99.90;;;;;;6312227;22;20332;-76
2022/10/09 04:15:51;;;;;;;14.60;7.00;;;7.40;99.90;;;;;;6286712;22;20448;-75
2022/10/09 04:18:17;;;;;;;10.07;6.18;;;7.40;99.90;;;;;;6312027;22;20023;-75
2022/10/09 04:20:54;;;;;;;11.70;6.45;;;7.40;99.90;;;;;;6311428;22;20022;-78
2022/10/09 04:23:22;;;;;;;12.27;6.82;;;7.40;99.90;;;;;;6311633;22;20348;-79
2022/10/09 04:25:52;;;;;;;13.57;6.47;;;7.40;99.90;;;;;;6339309;22;20461;-78
2022/10/09 04:28:18;;;;;;;12.93;6.20;;;7.40;99.90;;;;;;6311710;22;20037;-76
2022/10/09 04:30:44;;;;;;;15.48;6.60;;;7.30;99.90;;;;;;6311492;22;20436;-75
2022/10/09 04:33:09;;;;;;;13.02;6.68;;;7.30;99.90;;;;;;6339649;22;20085;-78
2022/10/09 04:35:35;;;;;;;13.48;7.03;;;7.30;99.90;;;;;;6339245;22;20044;-77
2022/10/09 04:38:00;;;;;;;12.73;6.28;;;7.30;99.90;;;;;;6339331;22;20041;-80
2022/10/09 04:40:26;;;;;;;17.75;7.85;;;7.30;99.90;;;;;;6311399;22;20011;-75
2022/10/09 04:42:52;;;;;;;14.93;6.85;;;7.30;99.90;;;;;;6311467;22;20055;-77
2022/10/09 04:45:17;;;;;;;17.17;7.07;;;7.20;99.90;;;;;;6338057;22;20030;-79
2022/10/09 04:47:43;;;;;;;14.07;6.25;;;7.30;99.90;;;;;;6311919;22;20007;-77
2022/10/09 04:50:09;;;;;;;9.90;6.03;;;7.30;99.90;;;;;;6311275;22;20019;-79
2022/10/09 04:52:34;;;;;;;10.85;5.72;;;7.30;99.90;;;;;;6311016;22;20026;-75
2022/10/09 04:55:00;;;;;;;11.02;6.35;;;7.20;99.90;;;;;;6311472;22;20018;-76
2022/10/09 04:57:26;;;;;;;10.02;6.22;;;7.20;99.90;;;;;;6311311;22;20144;-78
2022/10/09 04:59:51;;;;;;;10.75;6.18;;;7.20;99.90;;;;;;6311276;22;20019;-78
2022/10/09 05:02:17;;;;;;;14.95;7.45;;;7.20;99.90;;;;;;6311293;22;20015;-78
2022/10/09 05:04:44;;;;;;;13.75;6.05;;;7.20;99.90;;;;;;6285489;22;20050;-77
2022/10/09 05:07:10;;;;;;;16.40;6.65;;;7.20;99.90;;;;;;6311637;22;20015;-78
2022/10/09 05:09:36;;;;;;;10.73;5.95;;;7.20;99.90;;;;;;6311296;22;20006;-79
2022/10/09 05:12:01;;;;;;;13.98;6.32;;;7.20;99.90;;;;;;6311485;22;20043;-79
2022/10/09 05:14:27;;;;;;;13.55;6.72;;;7.20;99.90;;;;;;6311186;22;20007;-76
2022/10/09 05:16:53;;;;;;;15.80;6.55;;;7.20;99.90;;;;;;6285604;22;20007;-77
2022/10/09 05:19:18;;;;;;;13.43;6.38;;;7.10;99.90;;;;;;6311237;22;20022;-75
2022/10/09 05:21:44;;;;;;;12.20;6.53;;;7.10;99.90;;;;;;6339074;22;20060;-77
2022/10/09 05:24:10;;;;;;;11.13;5.93;;;7.10;99.90;;;;;;6311217;22;20007;-75
2022/10/09 05:26:36;;;;;;;14.45;6.40;;;7.10;99.90;;;;;;6339504;22;20011;-77
2022/10/09 05:29:01;;;;;;;10.50;5.90;;;7.10;99.90;;;;;;6311044;22;20018;-80
2022/10/09 05:31:29;;;;;;;12.75;6.72;;;7.10;99.90;;;;;;6311092;22;20011;-77
2022/10/09 05:33:57;;;;;;;14.77;7.80;;;7.10;99.90;;;;;;6311463;22;20015;-80
2022/10/09 05:36:23;;;;;;;20.60;7.90;;;7.10;99.90;;;;;;6311414;22;20090;-79
2022/10/09 05:38:49;;;;;;;14.25;7.57;;;7.10;99.90;;;;;;6311078;22;20289;-74
2022/10/09 05:41:17;;;;;;;12.07;6.20;;;7.10;99.90;;;;;;6285061;22;20054;-78
2022/10/09 05:43:44;;;;;;;13.38;6.25;;;7.00;99.90;;;;;;6311387;22;20007;-76
2022/10/09 05:46:14;;;;;;;10.85;4.07;;;7.10;99.90;;;;;;6310292;22;20018;-81
2022/10/09 05:48:42;;;;;;;5.85;3.47;;;7.00;99.90;;;;;;6339058;22;20011;-77
2022/10/09 05:51:16;;;;;;;8.30;4.13;;;7.00;99.90;;;;;;6285636;22;20014;-75
2022/10/09 05:53:44;;;;;;;6.97;3.30;;;7.00;99.90;;;;;;6310787;22;20014;-80
2022/10/09 05:56:13;;;;;;;6.18;3.60;;;7.00;99.90;;;;;;6310834;22;20019;-77
2022/10/09 05:58:38;;;;;;;10.98;4.30;;;7.00;99.90;;;;;;6311092;22;20022;-76
2022/10/09 06:01:04;;;;;;;7.93;3.85;;;7.00;99.90;;;;;;6310599;22;20329;-74
2022/10/09 06:03:30;;;;;;;9.85;3.63;;;7.00;99.90;;;;;;6311038;22;20007;-78
2022/10/09 06:06:03;;;;;;;7.38;3.65;;;7.00;99.90;;;;;;6311903;22;20014;-75
2022/10/09 06:08:37;;;;;;;10.02;4.00;;;7.00;99.90;;;;;;6312991;22;20067;-75
2022/10/09 06:11:11;;;;;;;6.30;3.30;;;6.90;99.90;;;;;;6312877;22;20140;-77
2022/10/09 06:13:37;;;;;;;7.25;3.80;;;6.90;99.90;;;;;;6312951;22;20018;-77
2022/10/09 06:16:02;;;;;;;7.13;3.90;;;6.90;99.90;;;;;;6340705;22;20014;-79
2022/10/09 06:18:29;;;;;;;8.02;4.05;;;6.90;99.90;;;;;;6313487;22;20022;-75
2022/10/09 06:21:00;;;;;;;8.90;4.18;;;6.90;99.90;;;;;;6312810;22;20018;-75
2022/10/09 06:23:26;;;;;;;8.95;3.85;;;6.90;99.90;;;;;;6314261;22;20038;-77
2022/10/09 06:25:57;;;;;;;6.95;3.80;;;6.90;99.90;;;;;;6316983;22;20042;-76
2022/10/09 06:28:23;;;;;;;7.72;3.83;;;6.90;99.90;;;;;;6313542;22;20010;-76
2022/10/09 06:30:50;;;;;;;6.85;3.40;;;6.90;99.90;;;;;;6312947;22;20109;-79
2022/10/09 06:33:15;;;;;;;8.68;3.95;;;6.90;99.90;;;;;;6287607;22;20382;-77
2022/10/09 06:35:41;;;;;;;7.40;3.88;;;6.90;99.90;;;;;;6312596;22;20071;-76
2022/10/09 06:38:07;;;;;;;10.43;4.93;;;6.90;99.90;;;;;;6286972;22;20025;-77
2022/10/09 06:40:35;;;;;;;16.83;4.72;;;6.90;99.90;;;;;;6312486;22;20019;-75
2022/10/09 06:43:01;;;;;;;10.85;5.18;;;6.90;99.90;;;;;;6312704;22;20395;-77
2022/10/09 06:45:27;;;;;;;10.30;5.90;;;6.90;99.90;;;;;;6313212;22;20087;-77
2022/10/09 06:47:53;;;;;;;9.77;5.20;;;6.90;99.90;;;;;;6312435;22;20095;-77
2022/10/09 06:50:18;;;;;;;8.65;4.13;;;6.90;99.90;;;;;;6286798;22;20521;-78
2022/10/09 06:52:44;;;;;;;10.48;4.78;;;7.00;99.90;;;;;;6312637;22;20015;-78
2022/10/09 06:55:10;;;;;;;9.98;4.57;;;7.00;99.90;;;;;;6340109;22;20006;-79
2022/10/09 06:57:35;;;;;;;10.35;4.90;;;7.00;99.90;;;;;;6312530;22;20007;-76
2022/10/09 07:00:01;;;;;;;11.55;4.95;;;7.10;99.90;;;;;;6312401;22;20011;-80
2022/10/09 07:02:27;;;;;;;10.98;4.95;;;7.10;99.90;;;;;;6339803;22;20007;-74
2022/10/09 07:04:52;;;;;;;9.75;5.07;;;7.10;99.90;;;;;;6312519;22;20380;-78
2022/10/09 07:07:18;;;;;;;10.80;4.97;;;7.20;99.90;;;;;;6340115;22;20082;-78
2022/10/09 07:09:44;;;;;;;10.07;5.35;;;7.20;99.90;;;;;;6312386;22;20046;-74
2022/10/09 07:12:09;;;;;;;12.00;5.88;;;7.30;99.90;;;;;;6312802;22;20082;-80
2022/10/09 07:14:35;;;;;;;11.70;5.47;;;7.30;99.90;;;;;;6312321;22;20015;-77
2022/10/09 07:17:01;;;;;;;10.68;5.50;;;7.40;99.90;;;;;;6312133;22;20090;-78
2022/10/09 07:19:27;;;;;;;10.98;5.00;;;7.40;99.90;;;;;;6312296;22;20011;-75
2022/10/09 07:21:52;;;;;;;13.07;5.60;;;7.50;99.90;;;;;;6340113;22;20048;-79
2022/10/09 07:24:19;;;;;;;16.58;6.10;;;7.60;99.90;;;;;;6312214;22;20007;-79
2022/10/09 07:26:46;;;;;;;10.70;5.38;;;7.60;99.90;;;;;;6312326;22;20470;-78
2022/10/09 07:29:14;;;;;;;11.95;5.43;;;7.70;99.90;;;;;;6312427;22;20010;-75
2022/10/09 07:31:39;;;;;;;8.90;4.75;;;7.80;99.90;;;;;;6340106;22;20363;-76
2022/10/09 07:34:05;;;;;;;12.88;4.97;;;7.80;99.90;;;;;;6312741;22;20015;-76
2022/10/09 07:36:31;;;;;;;9.20;4.68;;;7.90;99.90;;;;;;6312513;22;20093;-76
2022/10/09 07:38:58;;;;;;;10.75;4.57;;;8.00;99.90;;;;;;6340741;22;20052;-79
2022/10/09 07:41:25;;;;;;;12.18;4.70;;;8.00;99.90;;;;;;6340586;22;20011;-81
2022/10/09 07:43:51;;;;;;;9.75;4.70;;;8.10;99.90;;;;;;6340368;22;20096;-77
2022/10/09 07:46:20;;;;;;;12.70;4.72;;;8.20;99.90;;;;;;6312265;22;20015;-75
2022/10/09 07:48:46;;;;;;;11.05;4.40;;;8.20;99.90;;;;;;6313116;22;20089;-78
2022/10/09 07:51:24;;;;;;;8.23;3.95;;;8.30;99.90;;;;;;6312080;22;20053;-74
2022/10/09 07:53:50;;;;;;;12.38;4.38;;;8.30;99.90;;;;;;6312421;22;20086;-78
2022/10/09 07:56:22;;;;;;;7.45;4.22;;;8.40;99.90;;;;;;6312336;22;20018;-76
2022/10/09 07:58:49;;;;;;;13.57;4.07;;;8.50;99.90;;;;;;6313663;22;20015;-76
2022/10/09 08:01:15;;;;;;;6.32;3.92;;;8.60;99.90;;;;;;6311838;22;20089;-75
2022/10/09 08:03:40;;;;;;;9.60;4.60;;;8.60;99.90;;;;;;6286245;22;20096;-77
2022/10/09 08:06:06;;;;;;;11.25;3.83;;;8.70;99.90;;;;;;6312342;22;20011;-77
2022/10/09 08:08:32;;;;;;;9.30;4.30;;;8.80;99.90;;;;;;6339613;22;20068;-76
2022/10/09 08:10:58;;;;;;;16.55;4.90;;;8.80;99.90;;;;;;6311729;22;20019;-75
2022/10/09 08:13:24;;;;;;;7.03;3.58;;;8.90;99.90;;;;;;6311955;22;20038;-78
2022/10/09 08:15:49;;;;;;;6.50;3.53;;;9.00;99.90;;;;;;6311888;22;20041;-79
2022/10/09 08:18:15;;;;;;;10.50;4.30;;;9.10;99.90;;;;;;6285978;22;20019;-75
2022/10/09 08:20:41;;;;;;;12.65;4.60;;;9.10;99.90;;;;;;6311572;22;20094;-74
2022/10/09 08:23:06;;;;;;;8.15;3.50;;;9.20;99.90;;;;;;6312317;22;20049;-80
2022/10/09 08:25:37;;;;;;;7.82;3.65;;;9.30;99.90;;;;;;6339621;22;20018;-74
2022/10/09 08:28:03;;;;;;;13.10;4.53;;;9.40;99.90;;;;;;6285569;22;20436;-76
2022/10/09 08:30:29;;;;;;;11.55;4.38;;;9.50;99.90;;;;;;6312265;22;20007;-77
2022/10/09 08:32:55;;;;;;;11.73;4.15;;;9.50;99.90;;;;;;6311585;22;20538;-76
2022/10/09 08:35:20;;;;;;;12.05;3.97;;;9.60;99.90;;;;;;6311596;22;20133;-76
2022/10/09 08:37:46;;;;;;;10.50;4.03;;;9.80;99.90;;;;;;6339580;22;20133;-75
2022/10/09 08:40:26;;;;;;;8.43;3.97;;;9.90;99.90;;;;;;6311575;22;20031;-78
2022/10/09 08:43:02;;;;;;;6.00;3.38;;;10.00;99.90;;;;;;6310369;22;20090;-78
2022/10/09 08:45:29;;;;;;;8.05;3.60;;;10.10;99.90;;;;;;6311164;22;20018;-77
2022/10/09 08:48:01;;;;;;;8.85;3.53;;;10.30;99.90;;;;;;6310969;22;20321;-76
2022/10/09 08:50:34;;;;;;;8.98;3.53;;;10.40;99.90;;;;;;6310778;22;20053;-76
2022/10/09 08:53:18;;;;;;;11.27;3.92;;;10.50;99.90;;;;;;6312025;22;20085;-76
2022/10/09 08:55:54;;;;;;;10.25;3.80;;;10.70;99.90;;;;;;6311002;22;20389;-81
2022/10/09 08:58:22;;;;;;;9.25;4.32;;;10.80;99.90;;;;;;6339352;22;20007;-75
2022/10/09 09:00:58;;;;;;;14.27;3.75;;;11.00;99.90;;;;;;6310817;22;20025;-75
2022/10/09 09:03:24;;;;;;;;;;;11.20;99.90;;;;;;6311624;22;20018;-75
2022/10/09 09:06:05;;;;;;;;;;;11.30;99.90;;;;;;6339618;22;19911;-74
2022/10/09 09:09:21;;;;;;;13.00;3.70;;;11.60;99.90;;;;;;6285593;22;19910;-81
2022/10/09 09:11:53;;;;;;;7.03;3.20;;;12.10;99.90;;;;;;6259939;22;20014;-77
2022/10/09 09:14:54;;;;;;;11.30;3.50;;;12.70;99.90;;;;;;6310397;22;20368;-77
2022/10/09 09:17:41;;;;;;;9.82;3.35;;;12.70;99.90;;;;;;6339166;22;20018;-76
2022/10/09 09:20:25;;;;;;;14.27;4.15;;;12.70;99.90;;;;;;6310833;22;20022;-78
2022/10/09 09:22:51;;;;;;;12.68;3.95;;;12.70;99.90;;;;;;6311115;22;20011;-76
2022/10/09 09:25:33;;;;;;;6.90;2.97;;;12.70;99.90;;;;;;6339104;22;20010;-79
2022/10/09 09:28:17;;;;;;;10.35;3.22;;;12.70;99.90;;;;;;6311190;22;20092;-77
2022/10/09 09:31:01;;;;;;;9.48;2.85;;;12.80;99.90;;;;;;6311119;22;20045;-77
2022/10/09 09:33:47;;;;;;;6.72;2.85;;;13.00;99.90;;;;;;6311160;22;20382;-77
2022/10/09 09:36:25;;;;;;;14.38;2.83;;;13.10;99.90;;;;;;6339161;22;20011;-75
2022/10/09 09:38:52;;;;;;;8.68;2.97;;;13.20;99.90;;;;;;6311444;22;20049;-75
2022/10/09 09:41:18;;;;;;;6.88;3.00;;;13.20;99.90;;;;;;6312787;22;20094;-78
2022/10/09 09:43:43;;;;;;;7.28;2.42;;;13.30;99.90;;;;;;6313100;22;20017;-78
2022/10/09 09:46:17;;;;;;;7.22;2.65;;;13.40;99.90;;;;;;6312638;22;20090;-77
2022/10/09 09:48:47;;;;;;;10.35;2.85;;;13.50;99.90;;;;;;6340872;22;20007;-79
2022/10/09 09:51:18;;;;;;;6.88;2.78;;;13.50;99.90;;;;;;6287296;22;20015;-77
2022/10/09 09:53:51;;;;;;;9.13;2.50;;;13.60;99.90;;;;;;6312875;22;20014;-77
2022/10/09 09:56:17;;;;;;;4.38;1.80;;;13.70;99.90;;;;;;6340816;22;20081;-79
2022/10/09 09:58:54;;;;;;;8.70;2.78;;;13.90;99.90;;;;;;6312218;22;20011;-77
2022/10/09 10:01:28;;;;;;;6.45;2.30;;;14.00;99.90;;;;;;6313122;22;20054;-78
2022/10/09 10:03:59;;;;;;;5.20;1.92;;;14.00;99.90;;;;;;6340136;22;20459;-75
2022/10/09 10:06:33;;;;;;;9.55;2.03;;;14.00;99.90;;;;;;6313717;22;20416;-78
2022/10/09 10:09:14;;;;;;;6.55;3.00;;;14.10;99.90;;;;;;6340412;22;20370;-77
2022/10/09 10:12:00;;;;;;;12.70;2.40;;;14.10;99.90;;;;;;6340135;22;20436;-77
2022/10/09 10:14:26;;;;;;;9.95;2.00;;;14.10;99.90;;;;;;6340761;22;20455;-79
2022/10/09 10:16:55;;;;;;;8.85;2.22;;;14.20;99.90;;;;;;6312965;22;20148;-78
2022/10/09 10:19:23;;;;;;;5.15;2.08;;;14.20;99.90;;;;;;6340370;22;20288;-76
2022/10/09 10:22:01;;;;;;;10.93;2.10;;;14.40;99.90;;;;;;6340149;22;20018;-76
2022/10/09 10:24:40;;;;;;;8.38;2.08;;;14.60;99.90;;;;;;6312617;22;20451;-80
2022/10/09 10:27:42;;;;;;;4.90;1.77;;;14.70;99.90;;;;;;6312929;22;20019;-78
2022/10/09 10:30:12;;;;;;;7.13;1.83;;;14.80;99.90;;;;;;6165228;23;20444;-76
2022/10/09 10:33:00;;;;;;;9.40;1.90;;;14.90;99.90;;;;;;6291876;22;20072;-77
2022/10/09 10:35:30;;;;;;;6.25;1.98;;;14.90;99.90;;;;;;6312564;22;20036;-80
2022/10/09 10:38:10;;;;;;;4.00;1.83;;;15.00;99.90;;;;;;6312674;22;20056;-75
2022/10/09 10:40:54;;;;;;;10.38;2.00;;;15.10;99.90;;;;;;6340703;22;20049;-84
2022/10/09 10:43:41;;;;;;;6.22;2.08;;;15.30;99.90;;;;;;6313612;22;20016;-78
2022/10/09 10:46:24;;;;;;;5.03;1.60;;;15.30;99.90;;;;;;6340326;22;20081;-78
2022/10/09 10:48:51;;;;;;;7.95;2.17;;;15.40;99.90;;;;;;6339847;22;20051;-77
2022/10/09 10:51:37;;;;;;;8.95;2.40;;;15.50;99.90;;;;;;6311833;22;20015;-77
2022/10/09 10:54:31;;;;;;;5.68;1.90;;;15.60;99.90;;;;;;6286724;22;20014;-79
2022/10/09 10:57:22;;;;;;;6.63;2.25;;;15.60;99.90;;;;;;6312276;22;20476;-77
2022/10/09 10:59:59;;;;;;;9.07;2.63;;;15.70;99.90;;;;;;6312396;22;20458;-78
2022/10/09 11:02:29;;;;;;;7.32;2.33;;;15.80;99.90;;;;;;6312187;22;20011;-76
2022/10/09 11:05:25;;;;;;;10.85;2.22;;;15.80;99.90;;;;;;6312280;22;20011;-77
2022/10/09 11:08:04;;;;;;;13.25;2.90;;;15.90;99.90;;;;;;6312176;22;20010;-77
2022/10/09 11:10:42;;;;;;;8.85;2.33;;;16.00;99.90;;;;;;6340361;22;20086;-77
2022/10/09 11:13:31;;;;;;;6.40;2.33;;;16.10;99.90;;;;;;6312290;22;20049;-76
2022/10/09 11:16:42;;;;;;;8.63;2.47;;;16.20;99.90;;;;;;6312195;22;20041;-76
2022/10/09 11:19:42;;;;;;;5.55;2.03;;;16.30;99.90;;;;;;6315102;22;20014;-78
2022/10/09 11:22:30;;;;;;;6.82;2.00;;;16.30;99.90;;;;;;6343695;22;20055;-77
2022/10/09 11:25:09;;;;;;;9.43;2.60;;;16.30;99.90;;;;;;6312541;22;20059;-79
2022/10/09 11:27:41;;;;;;;10.00;2.47;;;16.30;99.90;;;;;;6312258;22;20432;-78
2022/10/09 11:30:13;;;;;;;8.57;2.97;;;16.30;99.90;;;;;;6312183;22;20018;-78
2022/10/09 11:33:04;;;;;;;11.60;2.80;;;16.30;99.90;;;;;;6339541;22;20412;-80
2022/10/09 11:35:59;;;;;;;9.65;2.33;;;16.40;99.90;;;;;;6312661;22;20328;-76
2022/10/09 11:38:36;;;;;;;8.95;2.75;;;16.50;99.90;;;;;;6279328;22;20095;-76
2022/10/09 11:41:03;;;;;;;11.65;2.50;;;16.50;99.90;;;;;;6339514;22;20448;-78
2022/10/09 11:44:02;;;;;;;6.60;2.42;;;16.50;99.90;;;;;;6312049;22;20013;-77
2022/10/09 11:46:50;;;;;;;6.55;2.17;;;16.50;99.90;;;;;;6311927;22;20017;-79
2022/10/09 11:49:26;;;;;;;4.38;2.22;;;16.60;99.90;;;;;;6312012;22;20068;-78
2022/10/09 11:51:56;;;;;;;8.18;1.83;;;16.80;99.90;;;;;;6312184;22;20085;-78
2022/10/09 11:54:24;;;;;;;12.30;2.20;;;16.80;99.90;;;;;;6312049;22;20022;-78
2022/10/09 11:56:56;;;;;;;10.00;1.88;;;17.00;99.90;;;;;;6312042;22;20013;-77
2022/10/09 11:59:28;;;;;;;6.55;1.85;;;17.00;99.90;;;;;;6339453;22;20428;-76
2022/10/09 12:01:56;;;;;;;6.57;1.80;;;17.10;99.90;;;;;;6311735;22;20011;-79
2022/10/09 12:04:28;;;;;;;5.38;1.70;;;17.10;99.90;;;;;;6286174;22;20038;-76
2022/10/09 12:07:03;;;;;;;5.53;1.63;;;17.10;99.90;;;;;;6311917;22;20068;-77
2022/10/09 12:09:42;;;;;;;5.75;1.80;;;17.10;99.90;;;;;;6311771;22;20015;-76
2022/10/09 12:12:20;;;;;;;7.22;1.83;;;17.10;99.90;;;;;;6311643;22;20064;-77
2022/10/09 12:14:48;;;;;;;4.00;1.60;;;17.20;99.90;;;;;;6311823;22;20436;-78
2022/10/09 12:17:22;;;;;;;6.63;1.35;;;17.20;99.90;;;;;;6311664;22;20010;-77
2022/10/09 12:20:06;;;;;;;10.55;1.98;;;17.20;99.90;;;;;;6311483;22;20428;-78
2022/10/09 12:22:36;;;;;;;6.72;1.80;;;17.40;99.90;;;;;;6339250;22;20019;-79
2022/10/09 12:25:11;;;;;;;8.57;1.88;;;17.30;99.90;;;;;;6339142;22;20420;-76
2022/10/09 12:27:39;;;;;;;7.18;1.88;;;17.40;99.90;;;;;;6339119;22;20078;-77
2022/10/09 12:30:12;;;;;;;9.38;1.90;;;17.40;99.90;;;;;;6311400;22;20463;-78
2022/10/09 12:32:59;;;;;;;6.55;1.85;;;17.50;99.90;;;;;;6311396;22;20011;-77
2022/10/09 12:35:32;;;;;;;6.72;1.67;;;17.70;99.90;;;;;;6311541;22;20347;-77
2022/10/09 12:37:58;;;;;;;7.78;1.88;;;17.80;99.90;;;;;;6311648;22;20010;-77
2022/10/09 12:40:30;;;;;;;7.43;1.88;;;17.80;99.90;;;;;;6311339;22;20440;-77
2022/10/09 12:42:57;;;;;;;8.88;2.10;;;17.60;99.90;;;;;;6311587;22;20088;-76
2022/10/09 12:45:26;;;;;;;5.15;1.70;;;17.70;99.90;;;;;;6311273;22;20007;-76
2022/10/09 12:47:53;;;;;;;10.82;2.10;;;17.60;99.90;;;;;;6339280;22;20002;-75
2022/10/09 12:50:26;;;;;;;7.97;2.40;;;17.50;99.90;;;;;;6311138;22;20033;-78
2022/10/09 12:52:56;;;;;;;8.65;2.42;;;17.50;99.90;;;;;;6311373;22;20016;-76
2022/10/09 12:55:30;;;;;;;6.82;2.40;;;17.60;99.90;;;;;;6311325;22;20042;-76
2022/10/09 12:58:03;;;;;;;7.13;2.35;;;17.60;99.90;;;;;;6311239;22;20050;-78
2022/10/09 13:00:33;;;;;;;6.93;2.10;;;17.70;99.90;;;;;;6338909;22;20011;-75
2022/10/09 13:03:00;;;;;;;5.88;2.22;;;17.70;99.90;;;;;;6311265;22;20038;-77
2022/10/09 13:05:40;;;;;;;8.07;2.20;;;17.80;99.90;;;;;;6338839;22;20021;-77
2022/10/09 13:08:26;;;;;;;7.00;2.20;;;17.90;99.90;;;;;;6311351;22;20411;-77
2022/10/09 13:10:53;;;;;;;8.68;2.70;;;18.00;99.90;;;;;;6338929;22;20448;-78
2022/10/09 13:13:24;;;;;;;6.60;1.98;;;18.10;99.90;;;;;;6311248;22;20340;-78
2022/10/09 13:16:07;;;;;;;5.90;2.55;;;18.10;99.90;;;;;;6311113;22;20525;-76
2022/10/09 13:18:33;;;;;;;8.88;2.15;;;18.10;99.90;;;;;;6311375;22;20052;-78
2022/10/09 13:21:22;;;;;;;6.20;1.80;;;18.10;99.90;;;;;;6339125;22;20082;-76
2022/10/09 13:23:47;;;;;;;4.70;1.95;;;18.10;99.90;;;;;;6311031;22;20088;-78
2022/10/09 13:26:27;;;;;;;5.68;2.00;;;18.20;99.90;;;;;;6338904;22;20064;-79
2022/10/09 13:28:55;;;;;;;6.10;1.85;;;18.20;99.90;;;;;;6339248;22;20007;-77
2022/10/09 13:31:21;;;;;;;6.15;1.80;;;18.30;99.90;;;;;;6311156;22;20011;-78
2022/10/09 13:33:47;;;;;;;5.70;1.85;;;18.30;99.90;;;;;;6339196;22;20015;-76
2022/10/09 13:36:15;;;;;;;13.52;2.13;;;18.30;99.90;;;;;;6311130;22;20022;-75
2022/10/09 13:38:40;;;;;;;8.45;1.95;;;18.40;99.90;;;;;;6311063;22;20043;-77
2022/10/09 13:41:08;;;;;;;6.22;2.40;;;18.30;99.90;;;;;;6311068;22;20010;-79
2022/10/09 13:43:34;;;;;;;5.20;2.00;;;18.20;99.90;;;;;;6311065;22;20007;-78
2022/10/09 13:45:59;;;;;;;6.45;2.28;;;18.10;99.90;;;;;;6338841;22;20064;-77
2022/10/09 13:48:25;;;;;;;6.32;2.03;;;18.10;99.90;;;;;;6311316;22;20086;-77
2022/10/09 13:50:51;;;;;;;7.43;2.45;;;18.10;99.90;;;;;;6311057;22;20042;-77
2022/10/09 13:53:17;;;;;;;6.78;2.40;;;18.00;99.90;;;;;;6312084;22;20348;-78
2022/10/09 13:55:42;;;;;;;8.57;1.98;;;18.00;99.90;;;;;;6311216;22;20034;-77
2022/10/09 13:58:08;;;;;;;6.68;1.90;;;17.90;99.90;;;;;;6311129;22;20019;-77
2022/10/09 14:00:35;;;;;;;8.35;2.25;;;17.90;99.90;;;;;;6338432;22;20011;-76
2022/10/09 14:03:02;;;;;;;11.75;2.70;;;17.90;99.90;;;;;;6338932;22;20100;-76
2022/10/09 14:05:28;;;;;;;8.27;2.15;;;17.90;99.90;;;;;;6311059;22;20019;-77
2022/10/09 14:07:53;;;;;;;6.50;2.10;;;17.80;99.90;;;;;;6310907;22;20076;-75
2022/10/09 14:10:21;;;;;;;10.82;2.20;;;17.80;99.90;;;;;;6310978;22;20011;-76
2022/10/09 14:12:49;;;;;;;6.13;1.92;;;17.80;99.90;;;;;;6311057;22;20026;-77
2022/10/09 14:15:15;;;;;;;6.32;1.88;;;17.80;99.90;;;;;;6310947;22;20026;-76
2022/10/09 14:17:40;;;;;;;8.10;1.80;;;17.80;99.90;;;;;;6285203;22;20011;-77
2022/10/09 14:20:06;;;;;;;5.53;1.88;;;17.80;99.90;;;;;;6310910;22;20018;-75
2022/10/09 14:22:32;;;;;;;4.40;1.70;;;17.80;99.90;;;;;;6310873;22;20029;-75
2022/10/09 14:24:58;;;;;;;6.13;1.98;;;17.70;99.90;;;;;;6338603;22;20078;-76
2022/10/09 14:27:23;;;;;;;5.13;1.70;;;17.60;99.90;;;;;;6312358;22;20102;-77
2022/10/09 14:29:49;;;;;;;6.13;1.60;;;17.50;99.90;;;;;;6312965;22;20015;-77
2022/10/09 14:32:14;;;;;;;5.85;1.52;;;17.40;99.90;;;;;;6311960;22;20023;-75
2022/10/09 14:34:40;;;;;;;5.22;1.35;;;17.40;99.90;;;;;;6313341;22;20018;-86
2022/10/09 14:37:06;;;;;;;4.57;1.65;;;17.30;99.90;;;;;;6312693;22;20015;-76
2022/10/09 14:39:32;;;;;;;7.82;1.52;;;17.30;99.90;;;;;;6340748;22;20021;-87
2022/10/09 14:41:58;;;;;;;5.55;1.33;;;17.30;99.90;;;;;;6286942;22;20021;-80
2022/10/09 14:44:23;;;;;;;4.95;1.50;;;17.30;99.90;;;;;;6286611;22;20393;-76
2022/10/09 14:46:49;;;;;;;6.15;1.63;;;17.40;99.90;;;;;;6340025;22;20034;-76
2022/10/09 14:49:15;;;;;;;6.03;1.80;;;17.30;99.90;;;;;;6339981;22;20007;-75
2022/10/09 14:51:41;;;;;;;6.88;1.60;;;17.20;99.90;;;;;;6312048;22;20410;-75
2022/10/09 14:54:07;;;;;;;3.97;1.33;;;17.30;99.90;;;;;;6312250;22;20517;-76
2022/10/09 14:56:34;;;;;;;16.40;1.75;;;17.20;99.90;;;;;;6312398;22;20007;-86
2022/10/09 14:59:00;;;;;;;6.25;1.50;;;17.20;99.90;;;;;;6312824;22;20086;-81
2022/10/09 15:01:28;;;;;;;6.90;1.75;;;17.10;99.90;;;;;;6286852;22;20087;-85
2022/10/09 15:03:53;;;;;;;7.45;1.50;;;17.10;99.90;;;;;;6340223;22;20038;-76
2022/10/09 15:06:22;;;;;;;3.92;1.60;;;17.10;99.90;;;;;;6312852;22;20018;-82
2022/10/09 15:08:56;;;;;;;5.35;1.60;;;17.00;99.90;;;;;;6340470;22;20018;-77
2022/10/09 15:11:22;;;;;;;6.20;1.63;;;17.10;99.90;;;;;;6339630;22;20015;-78
2022/10/09 15:13:49;;;;;;;7.47;1.73;;;17.10;99.90;;;;;;6312202;22;20018;-80
2022/10/09 15:16:17;;;;;;;11.50;1.73;;;17.10;99.90;;;;;;6313666;22;20026;-80
2022/10/09 15:18:43;;;;;;;6.90;1.83;;;17.00;99.90;;;;;;6340440;22;20022;-81
2022/10/09 15:21:20;;;;;;;4.53;1.73;;;17.00;99.90;;;;;;6341487;22;20011;-83
2022/10/09 15:23:46;;;;;;;8.90;1.88;;;17.00;99.90;;;;;;6312431;22;20019;-83
2022/10/09 15:26:16;;;;;;;9.75;1.90;;;16.90;99.90;;;;;;6340515;22;20018;-85
2022/10/09 15:28:43;;;;;;;6.95;2.03;;;16.90;99.90;;;;;;6340922;22;20007;-84
2022/10/09 15:31:20;;;;;;;5.78;1.83;;;16.90;99.90;;;;;;6312731;22;20042;-84
2022/10/09 15:33:47;;;;;;;5.32;1.60;;;16.80;99.90;;;;;;6312920;22;20007;-85
2022/10/09 15:36:13;;;;;;;6.45;2.03;;;16.80;99.90;;;;;;6313641;22;20013;-83
2022/10/09 15:38:39;;;;;;;6.55;1.38;;;16.80;99.90;;;;;;6339656;22;20078;-77
2022/10/09 15:41:05;;;;;;;6.55;1.80;;;16.70;99.90;;;;;;6339530;22;20011;-77
2022/10/09 15:43:32;;;;;;;12.40;1.95;;;16.70;99.90;;;;;;6312705;22;20077;-79
2022/10/09 15:46:02;;;;;;;7.47;1.73;;;16.70;99.90;;;;;;6341081;22;20007;-84
2022/10/09 15:48:38;;;;;;;5.97;1.48;;;16.70;99.90;;;;;;6339820;22;20007;-89
2022/10/09 15:51:05;;;;;;;3.70;1.67;;;16.60;99.90;;;;;;6210479;22;20068;-88
2022/10/09 15:53:32;;;;;;;5.43;1.63;;;16.50;99.90;;;;;;6312857;22;20015;-84
2022/10/09 15:56:04;;;;;;;5.75;1.70;;;16.50;99.90;;;;;;6340215;22;20366;-88
2022/10/09 15:58:30;;;;;;;5.65;1.75;;;16.50;99.90;;;;;;6339762;22;20003;-78
2022/10/09 16:01:05;;;;;;;5.65;1.70;;;16.40;99.90;;;;;;6339355;22;20404;-86
2022/10/09 16:03:32;;;;;;;5.43;1.60;;;16.40;99.90;;;;;;6339955;22;20018;-85
2022/10/09 16:05:59;;;;;;;7.20;1.83;;;16.30;99.90;;;;;;6339053;22;20007;-85
2022/10/09 16:08:32;;;;;;;9.95;2.10;;;16.20;99.90;;;;;;6310829;22;20045;-87
2022/10/09 16:10:58;;;;;;;6.75;1.70;;;16.10;99.90;;;;;;6339282;22;20333;-77
2022/10/09 16:13:25;;;;;;;5.47;2.20;;;16.00;99.90;;;;;;6311146;22;20014;-78
2022/10/09 16:15:51;;;;;;;6.40;2.25;;;15.90;99.90;;;;;;6338388;22;20068;-78
2022/10/09 16:18:21;;;;;;;6.57;2.20;;;15.80;99.90;;;;;;6339304;22;20507;-82
2022/10/09 16:20:47;;;;;;;5.35;2.03;;;15.70;99.90;;;;;;6339683;22;20018;-78
2022/10/09 16:23:14;;;;;;;5.15;1.67;;;15.60;99.90;;;;;;6339599;22;20010;-77
2022/10/09 16:25:41;;;;;;;3.97;1.88;;;15.50;99.90;;;;;;6311228;22;20007;-78
2022/10/09 16:28:08;;;;;;;3.88;1.95;;;15.40;99.90;;;;;;6311045;22;20042;-77
2022/10/09 16:30:44;;;;;;;5.78;2.05;;;15.30;99.90;;;;;;6338099;22;20013;-78
2022/10/09 16:33:10;;;;;;;;;;;15.20;99.90;;;;;;6310774;22;20014;-76
2022/10/09 16:35:35;;;;;;;3.80;1.92;;;15.10;99.90;;;;;;6310088;22;20347;-77
2022/10/09 16:38:01;;;;;;;8.18;1.92;;;15.00;99.90;;;;;;6310506;22;20014;-76
2022/10/09 16:40:27;;;;;;;5.57;2.05;;;15.00;99.90;;;;;;6285375;22;20467;-79
2022/10/09 16:42:53;;;;;;;8.32;2.20;;;14.90;99.90;;;;;;6311285;22;20014;-76
2022/10/09 16:45:18;;;;;;;8.05;2.17;;;14.80;99.90;;;;;;6311262;22;20006;-77
2022/10/09 16:47:44;;;;;;;8.65;2.38;;;14.70;99.90;;;;;;6311249;22;20006;-78
2022/10/09 16:50:11;;;;;;;5.25;2.30;;;14.60;99.90;;;;;;6310828;22;20022;-77
2022/10/09 16:52:37;;;;;;;7.85;2.25;;;14.60;99.90;;;;;;6338893;22;20057;-79
2022/10/09 16:55:03;;;;;;;7.63;2.20;;;14.50;99.90;;;;;;6311720;22;20006;-77
2022/10/09 16:57:29;;;;;;;5.55;1.90;;;14.40;99.90;;;;;;6311051;22;20007;-79
2022/10/09 16:59:54;;;;;;;6.15;2.00;;;14.40;99.90;;;;;;6338841;22;20428;-79
2022/10/09 17:02:20;;;;;;;6.10;2.53;;;14.30;99.90;;;;;;6310794;22;20010;-75
2022/10/09 17:04:46;;;;;;;4.10;2.20;;;14.20;99.90;;;;;;6309701;22;20018;-77